createdAt,value
2022-11-16T00:01:49.898Z,42.10
2022-11-16T00:03:48.446Z,52.33
2022-11-16T00:05:46.775Z,37.60
2022-11-16T00:07:47.873Z,40.30
2022-11-16T00:09:45.897Z,47.22
2022-11-16T00:11:45.677Z,42.10
2022-11-16T00:13:45.045Z,39.47
2022-11-16T00:15:43.115Z,41.38
2022-11-16T00:17:43.473Z,55.65
2022-11-16T00:19:41.719Z,39.13
2022-11-16T00:21:40.188Z,53.85
2022-11-16T00:23:39.554Z,53.47
2022-11-16T00:25:37.905Z,49.10
2022-11-16T00:27:37.374Z,43.85
2022-11-16T00:29:35.542Z,46.00
2022-11-16T00:31:34.068Z,38.47
2022-11-16T00:33:32.506Z,43.83
2022-11-16T00:35:30.763Z,30.70
2022-11-16T00:37:28.962Z,40.63
2022-11-16T00:39:27.177Z,39.60
2022-11-16T00:41:25.653Z,41.60
2022-11-16T00:43:25.682Z,31.80
2022-11-16T00:45:23.880Z,41.33
2022-11-16T00:47:22.668Z,50.72
2022-11-16T00:49:23.226Z,35.65
2022-11-16T00:51:21.604Z,32.60
2022-11-16T00:53:21.644Z,32.22
2022-11-16T00:55:20.064Z,32.97
2022-11-16T00:57:18.406Z,43.60
2022-11-16T00:59:18.590Z,48.53
2022-11-16T01:01:17.121Z,31.23
2022-11-16T01:03:15.452Z,42.45
2022-11-16T01:05:14.219Z,42.72
2022-11-16T01:07:12.552Z,35.67
2022-11-16T01:09:12.198Z,38.85
2022-11-16T01:11:29.229Z,27.38
2022-11-16T01:13:29.958Z,32.90
2022-11-16T01:15:30.441Z,29.33
2022-11-16T01:17:28.558Z,40.30
2022-11-16T01:19:26.778Z,40.88
2022-11-16T01:21:25.882Z,36.92
2022-11-16T01:23:24.039Z,42.92
2022-11-16T01:25:22.933Z,24.48
2022-11-16T01:27:21.232Z,34.67
2022-11-16T01:29:19.705Z,39.63
2022-11-16T01:31:26.714Z,36.47
2022-11-16T01:33:25.901Z,26.90
2022-11-16T01:35:24.211Z,43.97
2022-11-16T01:37:22.344Z,37.03
2022-11-16T01:39:21.208Z,31.83
2022-11-16T01:41:26.556Z,27.48
2022-11-16T01:43:28.399Z,32.13
2022-11-16T01:45:38.824Z,29.60
2022-11-16T01:47:40.603Z,30.35
2022-11-16T01:49:42.126Z,27.95
2022-11-16T01:51:46.705Z,22.10
2022-11-16T01:53:46.453Z,35.15
2022-11-16T01:55:47.919Z,19.25
2022-11-16T01:58:19.414Z,13.75
2022-11-16T02:00:21.139Z,16.88
2022-11-16T02:02:29.430Z,16.55
2022-11-16T02:04:29.155Z,23.95
2022-11-16T02:06:39.173Z,34.25
2022-11-16T02:09:11.662Z,21.63
2022-11-16T02:11:36.630Z,8.07
2022-11-16T02:13:44.721Z,18.10
2022-11-16T02:15:49.039Z,11.73
2022-11-16T02:18:14.801Z,23.88
2022-11-16T02:20:35.999Z,20.45
2022-11-16T02:22:48.360Z,12.70
2022-11-16T02:24:55.043Z,18.52
2022-11-16T02:27:17.542Z,9.75
2022-11-16T02:29:25.792Z,12.10
2022-11-16T02:31:28.622Z,19.30
2022-11-16T02:33:36.530Z,23.15
2022-11-16T02:35:41.593Z,19.45
2022-11-16T02:37:49.783Z,34.42
2022-11-16T02:39:53.522Z,17.08
2022-11-16T02:41:54.914Z,17.02
2022-11-16T02:44:01.272Z,14.27
2022-11-16T02:46:06.491Z,19.83
2022-11-16T02:48:09.740Z,22.45
2022-11-16T02:50:12.156Z,19.30
2022-11-16T02:52:13.012Z,18.52
2022-11-16T02:54:13.130Z,18.73
2022-11-16T02:56:15.694Z,16.05
2022-11-16T02:58:19.109Z,21.05
2022-11-16T03:00:21.394Z,19.85
2022-11-16T03:02:26.939Z,15.02
2022-11-16T03:04:30.848Z,18.35
2022-11-16T03:06:32.612Z,19.70
2022-11-16T03:08:33.123Z,16.60
2022-11-16T03:10:56.099Z,14.52
2022-11-16T03:12:54.936Z,19.55
2022-11-16T03:14:56.581Z,23.17
2022-11-16T03:16:58.536Z,28.83
2022-11-16T03:19:00.786Z,20.15
2022-11-16T03:21:08.276Z,19.50
2022-11-16T03:23:11.391Z,20.65
2022-11-16T03:25:15.164Z,19.33
2022-11-16T03:27:28.152Z,18.27
2022-11-16T03:29:32.718Z,26.85
2022-11-16T03:31:46.355Z,16.23
2022-11-16T03:33:51.454Z,13.68
2022-11-16T03:35:56.644Z,16.80
2022-11-16T03:37:59.279Z,18.73
2022-11-16T03:40:01.172Z,21.45
2022-11-16T03:42:05.401Z,15.13
2022-11-16T03:44:06.011Z,12.63
2022-11-16T03:46:04.942Z,18.58
2022-11-16T03:48:04.292Z,19.48
2022-11-16T03:50:02.518Z,12.15
2022-11-16T03:52:02.432Z,8.38
2022-11-16T03:54:01.859Z,25.48
2022-11-16T03:56:00.048Z,18.33
2022-11-16T03:57:59.420Z,13.40
2022-11-16T03:59:57.712Z,18.02
2022-11-16T04:01:56.143Z,12.63
2022-11-16T04:03:54.357Z,19.58
2022-11-16T04:06:10.108Z,18.92
2022-11-16T04:08:33.033Z,23.52
2022-11-16T04:10:49.211Z,17.98
2022-11-16T04:13:04.830Z,15.95
2022-11-16T04:15:22.073Z,18.02
2022-11-16T04:17:41.880Z,24.45
2022-11-16T04:19:59.398Z,24.27
2022-11-16T04:22:20.974Z,16.42
2022-11-16T04:24:23.844Z,22.50
2022-11-16T04:26:43.005Z,21.83
2022-11-16T04:28:41.347Z,13.25
2022-11-16T04:30:53.891Z,25.13
2022-11-16T04:33:09.888Z,27.85
2022-11-16T04:35:27.007Z,66.40
2022-11-16T04:37:42.723Z,26.52
2022-11-16T04:39:42.867Z,26.95
2022-11-16T04:41:58.652Z,31.20
2022-11-16T04:43:59.972Z,28.25
2022-11-16T04:46:16.253Z,51.72
2022-11-16T04:48:16.140Z,36.78
2022-11-16T04:50:14.529Z,41.38
2022-11-16T04:52:13.661Z,26.48
2022-11-16T04:54:12.839Z,18.80
2022-11-16T04:56:16.413Z,25.35
2022-11-16T04:58:14.912Z,47.63
2022-11-16T05:00:15.341Z,28.42
2022-11-16T05:02:15.198Z,26.38
2022-11-16T05:04:19.077Z,31.33
2022-11-16T05:06:17.317Z,21.05
2022-11-16T05:08:15.990Z,50.95
2022-11-16T05:10:16.575Z,39.03
2022-11-16T05:12:19.185Z,30.83
2022-11-16T05:14:19.365Z,37.17
2022-11-16T05:16:17.740Z,36.83
2022-11-16T05:18:15.959Z,34.67
2022-11-16T05:20:32.051Z,28.70
2022-11-16T05:22:35.311Z,39.35
2022-11-16T05:24:36.190Z,46.20
2022-11-16T05:26:35.972Z,39.25
2022-11-16T05:28:35.756Z,67.78
2022-11-16T05:30:34.365Z,32.05
2022-11-16T05:32:34.614Z,29.25
2022-11-16T05:34:32.964Z,31.13
2022-11-16T05:36:31.541Z,48.72
2022-11-16T05:38:29.976Z,45.63
2022-11-16T05:40:32.957Z,37.28
2022-11-16T05:42:32.300Z,55.53
2022-11-16T05:44:32.164Z,44.65
2022-11-16T05:46:30.453Z,29.10
2022-11-16T05:48:31.181Z,26.17
2022-11-16T05:50:29.730Z,13.23
2022-11-16T05:52:37.179Z,19.25
2022-11-16T05:54:39.236Z,39.03
2022-11-16T05:56:37.756Z,35.28
2022-11-16T05:58:36.553Z,26.90
2022-11-16T06:00:36.515Z,27.42
2022-11-16T06:02:35.095Z,28.52
2022-11-16T06:04:34.641Z,24.60
2022-11-16T06:06:33.140Z,41.53
2022-11-16T06:08:32.557Z,19.38
2022-11-16T06:10:34.268Z,31.55
2022-11-16T06:12:32.493Z,43.60
2022-11-16T06:14:30.773Z,19.80
2022-11-16T06:16:31.284Z,39.28
2022-11-16T06:18:30.213Z,26.50
2022-11-16T06:20:29.208Z,20.55
2022-11-16T06:22:27.872Z,18.98
2022-11-16T06:24:26.052Z,24.95
2022-11-16T06:26:24.446Z,23.50
2022-11-16T06:28:22.975Z,25.60
2022-11-16T06:30:21.568Z,36.47
2022-11-16T06:32:21.065Z,24.08
2022-11-16T06:34:19.508Z,23.85
2022-11-16T06:36:18.005Z,23.88
2022-11-16T06:38:18.724Z,24.55
2022-11-16T06:40:19.000Z,28.40
2022-11-16T06:42:17.289Z,19.10
2022-11-16T06:44:15.517Z,24.02
2022-11-16T06:46:24.707Z,26.40
2022-11-16T06:48:25.584Z,43.90
2022-11-16T06:50:23.788Z,30.55
2022-11-16T06:52:22.143Z,54.58
2022-11-16T06:54:21.537Z,31.75
2022-11-16T06:56:21.285Z,39.40
2022-11-16T06:58:29.713Z,34.33
2022-11-16T07:00:28.685Z,34.88
2022-11-16T07:02:27.868Z,37.17
2022-11-16T07:04:27.485Z,46.90
2022-11-16T07:06:29.324Z,26.10
2022-11-16T07:08:29.424Z,33.45
2022-11-16T07:10:27.810Z,21.42
2022-11-16T07:12:26.814Z,34.10
2022-11-16T07:14:27.481Z,38.92
2022-11-16T07:16:25.920Z,35.97
2022-11-16T07:18:28.712Z,36.70
2022-11-16T07:20:28.624Z,32.00
2022-11-16T07:22:27.210Z,34.20
2022-11-16T07:24:25.555Z,30.80
2022-11-16T07:26:24.110Z,37.25
2022-11-16T07:28:29.263Z,23.23
2022-11-16T07:30:28.060Z,27.45
2022-11-16T07:33:19.442Z,26.63
2022-11-16T07:36:18.121Z,31.27
2022-11-16T07:38:18.371Z,25.08
2022-11-16T07:40:17.801Z,46.33
2022-11-16T07:42:42.189Z,19.92
2022-11-16T07:46:21.343Z,37.67
2022-11-16T07:48:17.525Z,30.20
2022-11-16T07:50:38.764Z,27.23
2022-11-16T07:53:28.495Z,42.67
2022-11-16T07:55:32.127Z,30.23
2022-11-16T07:57:32.317Z,30.02
2022-11-16T08:00:21.696Z,28.63
2022-11-16T08:02:53.113Z,21.17
2022-11-16T08:05:34.600Z,27.08
2022-11-16T08:08:04.448Z,19.63
2022-11-16T08:10:12.823Z,29.73
2022-11-16T08:12:19.314Z,30.40
2022-11-16T08:15:02.642Z,34.03
2022-11-16T08:17:50.783Z,20.20
2022-11-16T08:20:26.735Z,18.00
2022-11-16T08:22:29.207Z,35.45
2022-11-16T08:25:13.728Z,34.67
2022-11-16T08:28:07.603Z,26.70
2022-11-16T08:30:10.294Z,29.10
2022-11-16T08:32:10.994Z,30.77
2022-11-16T08:34:51.745Z,29.42
2022-11-16T08:40:51.728Z,27.70
2022-11-16T08:43:40.824Z,25.33
2022-11-16T08:46:46.640Z,25.15
2022-11-16T08:49:13.263Z,38.88
2022-11-16T08:51:52.197Z,27.00
2022-11-16T08:54:26.720Z,27.63
2022-11-16T08:56:30.299Z,40.20
2022-11-16T08:58:43.494Z,38.88
2022-11-16T09:01:00.502Z,24.63
2022-11-16T09:04:04.611Z,28.63
2022-11-16T09:12:29.365Z,35.50
2022-11-16T09:14:36.949Z,29.05
2022-11-16T09:17:58.032Z,36.80
2022-11-16T09:21:00.857Z,22.73
2022-11-16T09:23:23.846Z,28.67
2022-11-16T09:26:01.179Z,24.83
2022-11-16T09:28:53.599Z,25.45
2022-11-16T09:31:42.986Z,21.17
2022-11-16T09:33:50.585Z,30.33
2022-11-16T09:35:49.978Z,22.77
2022-11-16T09:38:46.843Z,30.48
2022-11-16T09:41:42.344Z,25.75
2022-11-16T09:44:40.943Z,19.10
2022-11-16T09:47:34.285Z,29.05
2022-11-16T09:49:44.022Z,24.80
2022-11-16T09:51:46.491Z,27.80
2022-11-16T09:54:59.820Z,25.17
2022-11-16T09:57:50.624Z,25.02
2022-11-16T10:00:02.394Z,14.65
2022-11-16T10:02:22.989Z,25.13
2022-11-16T10:04:58.656Z,21.35
2022-11-16T10:07:28.047Z,21.73
2022-11-16T10:09:28.689Z,19.73
2022-11-16T10:11:41.645Z,15.40
2022-11-16T10:13:49.473Z,21.17
2022-11-16T10:16:17.960Z,14.85
2022-11-16T10:19:11.680Z,32.15
2022-11-16T10:21:36.147Z,40.65
2022-11-16T10:23:50.191Z,14.75
2022-11-16T10:26:30.720Z,19.35
2022-11-16T10:28:58.103Z,15.18
2022-11-16T10:31:48.364Z,12.68
2022-11-16T10:34:30.234Z,20.52
2022-11-16T10:36:35.919Z,17.08
2022-11-16T10:39:17.260Z,16.20
2022-11-16T10:42:13.627Z,7.65
2022-11-16T10:44:21.217Z,20.52
2022-11-16T10:47:19.352Z,14.38
2022-11-16T10:49:54.840Z,15.82
2022-11-16T10:51:56.282Z,18.00
2022-11-16T10:53:55.878Z,17.42
2022-11-16T10:56:11.879Z,16.20
2022-11-16T10:58:43.301Z,24.25
2022-11-16T11:01:40.779Z,13.75
2022-11-16T11:03:39.058Z,24.08
2022-11-16T11:06:18.239Z,17.38
2022-11-16T11:08:57.964Z,13.85
2022-11-16T11:11:22.757Z,20.55
2022-11-16T11:13:51.308Z,18.98
2022-11-16T11:16:32.850Z,14.82
2022-11-16T11:18:32.515Z,16.13
2022-11-16T11:20:44.814Z,17.42
2022-11-16T11:22:46.089Z,14.07
2022-11-16T11:24:48.797Z,33.95
2022-11-16T11:26:54.191Z,10.35
2022-11-16T11:28:52.590Z,16.80
2022-11-16T11:30:57.444Z,16.40
2022-11-16T11:32:55.761Z,19.13
2022-11-16T11:34:57.060Z,18.33
2022-11-16T11:36:58.756Z,18.50
2022-11-16T11:39:03.374Z,19.20
2022-11-16T11:41:05.307Z,23.35
2022-11-16T11:43:06.403Z,15.23
2022-11-16T11:45:10.269Z,12.18
2022-11-16T11:48:00.385Z,18.77
2022-11-16T11:50:07.802Z,18.05
2022-11-16T11:52:13.080Z,16.35
2022-11-16T11:54:19.281Z,15.15
2022-11-16T11:56:18.729Z,21.40
2022-11-16T11:58:19.664Z,11.55
2022-11-16T12:00:19.222Z,13.35
2022-11-16T12:02:35.009Z,15.10
2022-11-16T12:05:01.395Z,15.00
2022-11-16T12:07:08.077Z,15.15
2022-11-16T12:09:26.851Z,21.25
2022-11-16T12:11:34.389Z,15.77
2022-11-16T12:13:51.219Z,12.90
2022-11-16T12:16:06.510Z,15.15
2022-11-16T12:18:18.382Z,16.63
2022-11-16T12:20:34.585Z,10.18
2022-11-16T12:22:54.054Z,6.38
2022-11-16T12:25:08.331Z,15.40
2022-11-16T12:27:20.167Z,20.90
2022-11-16T12:29:27.269Z,17.17
2022-11-16T12:31:52.158Z,14.77
2022-11-16T12:33:59.611Z,16.27
2022-11-16T12:36:05.752Z,18.50
2022-11-16T12:38:23.125Z,9.80
2022-11-16T12:40:36.968Z,13.90
2022-11-16T12:42:48.278Z,11.90
2022-11-16T12:45:17.021Z,24.05
2022-11-16T12:47:25.640Z,14.85
2022-11-16T12:49:49.066Z,14.95
2022-11-16T12:52:01.137Z,11.20
2022-11-16T12:54:30.115Z,13.70
2022-11-16T12:56:39.731Z,10.55
2022-11-16T12:59:01.100Z,10.60
2022-11-16T13:01:12.243Z,13.93
2022-11-16T13:03:19.723Z,17.33
2022-11-16T13:05:22.456Z,14.02
2022-11-16T13:07:26.790Z,13.45
2022-11-16T13:09:31.481Z,36.03
2022-11-16T13:11:33.091Z,14.95
2022-11-16T13:13:38.599Z,11.52
2022-11-16T13:15:40.913Z,9.30
2022-11-16T13:17:41.097Z,10.20
2022-11-16T13:19:43.289Z,15.18
2022-11-16T13:21:49.021Z,9.32
2022-11-16T13:23:56.840Z,14.00
2022-11-16T13:26:04.006Z,25.02
2022-11-16T13:28:13.304Z,13.82
2022-11-16T13:30:20.543Z,15.35
2022-11-16T13:32:25.289Z,17.40
2022-11-16T13:34:27.218Z,14.68
2022-11-16T13:36:45.503Z,10.43
2022-11-16T13:38:54.335Z,18.92
2022-11-16T13:40:52.666Z,18.15
2022-11-16T13:43:06.820Z,18.40
2022-11-16T13:45:10.033Z,21.27
2022-11-16T13:47:22.075Z,11.10
2022-11-16T13:49:23.936Z,14.23
2022-11-16T13:51:24.837Z,17.38
2022-11-16T13:54:25.056Z,13.57
2022-11-16T13:55:57.450Z,14.70
2022-11-16T13:57:57.970Z,13.77
2022-11-16T14:00:11.529Z,19.80
2022-11-16T14:02:31.603Z,10.20
2022-11-16T14:04:57.869Z,18.45
2022-11-16T14:07:01.029Z,13.00
2022-11-16T14:09:00.565Z,12.50
2022-11-16T14:11:02.888Z,19.83
2022-11-16T14:13:01.570Z,10.68
2022-11-16T14:15:14.640Z,14.68
2022-11-16T14:17:53.712Z,15.82
2022-11-16T14:19:57.706Z,18.48
2022-11-16T14:22:05.567Z,24.40
2022-11-16T14:24:22.411Z,19.63
2022-11-16T14:26:26.672Z,14.50
2022-11-16T14:28:43.861Z,17.05
2022-11-16T14:30:56.552Z,17.38
2022-11-16T14:32:57.498Z,13.50
2022-11-16T14:34:58.154Z,16.90
2022-11-16T14:36:57.232Z,20.42
2022-11-16T14:38:56.046Z,14.35
2022-11-16T14:40:59.876Z,16.65
2022-11-16T14:43:20.223Z,11.93
2022-11-16T14:45:25.073Z,12.23
2022-11-16T14:47:28.746Z,16.48
2022-11-16T14:49:37.273Z,18.70
2022-11-16T14:51:39.315Z,8.95
2022-11-16T14:53:41.027Z,28.20
2022-11-16T14:55:45.358Z,21.73
2022-11-16T14:59:41.700Z,15.90
2022-11-16T15:01:40.999Z,10.93
2022-11-16T15:03:44.346Z,14.13
2022-11-16T15:05:42.774Z,18.88
2022-11-16T15:07:45.061Z,16.00
2022-11-16T15:09:48.460Z,22.80
2022-11-16T15:12:07.327Z,22.95
2022-11-16T15:14:05.782Z,16.92
2022-11-16T15:16:12.491Z,10.32
2022-11-16T15:18:14.993Z,14.90
2022-11-16T15:20:20.799Z,21.65
2022-11-16T15:22:22.544Z,12.02
2022-11-16T15:24:30.633Z,11.27
2022-11-16T15:26:30.029Z,13.60
2022-11-16T15:28:55.298Z,10.93
2022-11-16T15:32:54.385Z,17.50
2022-11-16T15:34:55.397Z,15.63
2022-11-16T15:36:58.023Z,15.32
2022-11-16T15:38:58.709Z,25.75
2022-11-16T15:41:06.487Z,20.38
2022-11-16T15:43:13.368Z,30.33
2022-11-16T15:45:22.427Z,21.60
2022-11-16T15:47:21.637Z,13.90
2022-11-16T15:49:28.824Z,14.38
2022-11-16T15:51:32.330Z,19.73
2022-11-16T15:53:40.622Z,16.73
2022-11-16T15:55:43.385Z,18.40
2022-11-16T15:57:46.629Z,11.48
2022-11-16T15:59:50.580Z,15.07
2022-11-16T16:01:52.255Z,25.02
2022-11-16T16:03:58.770Z,9.20
2022-11-16T16:05:57.319Z,16.83
2022-11-16T16:07:58.181Z,20.85
2022-11-16T16:10:13.826Z,24.27
2022-11-16T16:12:20.007Z,19.42
2022-11-16T16:14:27.503Z,19.70
2022-11-16T16:16:39.606Z,24.20
2022-11-16T16:18:54.903Z,18.60
2022-11-16T16:20:55.372Z,13.70
2022-11-16T16:23:16.465Z,24.08
2022-11-16T16:25:33.318Z,21.60
2022-11-16T16:29:49.821Z,51.10
2022-11-16T16:32:07.057Z,27.25
2022-11-16T16:34:12.705Z,28.52
2022-11-16T16:36:13.788Z,21.45
2022-11-16T16:39:08.497Z,18.98
2022-11-16T16:44:00.733Z,11.00
2022-11-16T16:46:02.302Z,18.95
2022-11-16T16:48:00.714Z,13.98
2022-11-16T16:49:58.905Z,27.35
2022-11-16T16:52:00.423Z,18.25
2022-11-16T16:54:14.617Z,26.33
2022-11-16T16:56:19.755Z,14.98
2022-11-16T16:58:18.581Z,11.75
2022-11-16T17:00:18.733Z,28.08
2022-11-16T17:02:17.457Z,19.77
2022-11-16T17:04:15.994Z,16.50
2022-11-16T17:08:53.464Z,14.52
2022-11-16T17:11:05.846Z,14.25
2022-11-16T17:13:21.165Z,15.35
2022-11-16T17:15:27.405Z,20.27
2022-11-16T17:18:06.714Z,20.35
2022-11-16T17:20:50.319Z,24.85
2022-11-16T17:22:57.592Z,18.73
2022-11-16T17:24:58.873Z,19.85
2022-11-16T17:26:59.540Z,17.90
2022-11-16T17:29:01.843Z,20.75
2022-11-16T17:31:11.677Z,18.55
2022-11-16T17:33:10.195Z,21.73
2022-11-16T17:35:15.391Z,26.42
2022-11-16T17:37:22.687Z,20.75
2022-11-16T17:39:26.223Z,18.55
2022-11-16T17:41:25.681Z,17.50
2022-11-16T17:43:36.851Z,17.95
2022-11-16T17:45:36.645Z,19.88
2022-11-16T17:47:34.890Z,34.17
2022-11-16T17:49:36.321Z,21.48
2022-11-16T17:51:43.684Z,27.50
2022-11-16T17:53:44.315Z,25.52
2022-11-16T17:55:46.276Z,22.35
2022-11-16T17:57:44.617Z,22.50
2022-11-16T17:59:43.008Z,26.90
2022-11-16T18:01:45.747Z,24.10
2022-11-16T18:03:46.244Z,24.42
2022-11-16T18:05:45.323Z,29.80
2022-11-16T18:07:43.777Z,33.58
2022-11-16T18:09:41.975Z,21.38
2022-11-16T18:11:40.314Z,17.60
2022-11-16T18:13:38.770Z,48.00
2022-11-16T18:15:42.469Z,41.47
2022-11-16T18:17:42.321Z,26.33
2022-11-16T18:19:43.046Z,22.48
2022-11-16T18:21:42.654Z,20.80
2022-11-16T18:23:41.070Z,24.20
2022-11-16T18:25:41.618Z,22.05
2022-11-16T18:27:42.299Z,28.77
2022-11-16T18:29:41.237Z,40.55
2022-11-16T18:31:40.205Z,23.40
2022-11-16T18:33:40.540Z,29.83
2022-11-16T18:35:39.135Z,27.05
2022-11-16T18:37:40.569Z,23.30
2022-11-16T18:39:38.799Z,25.92
2022-11-16T18:44:34.418Z,30.67
2022-11-16T18:46:44.752Z,26.58
2022-11-16T18:48:47.403Z,19.27
2022-11-16T18:50:45.779Z,29.30
2022-11-16T18:52:45.410Z,24.42
2022-11-16T18:54:43.549Z,31.58
2022-11-16T18:56:44.846Z,27.13
2022-11-16T18:58:52.425Z,48.10
2022-11-16T19:01:05.125Z,34.67
2022-11-16T19:03:08.466Z,29.45
2022-11-16T19:05:11.020Z,16.55
2022-11-16T19:07:09.371Z,22.38
2022-11-16T19:09:09.699Z,25.80
2022-11-16T19:11:09.720Z,34.10
2022-11-16T19:13:08.121Z,16.42
2022-11-16T19:15:08.563Z,37.05
2022-11-16T19:17:06.799Z,27.48
2022-11-16T19:19:05.654Z,23.95
2022-11-16T19:21:06.623Z,19.60
2022-11-16T19:23:05.033Z,18.50
2022-11-16T19:25:05.991Z,33.13
2022-11-16T19:27:05.294Z,39.45
2022-11-16T19:29:05.800Z,18.35
2022-11-16T19:31:09.173Z,17.10
2022-11-16T19:33:09.326Z,19.00
2022-11-16T19:35:10.985Z,24.05
2022-11-16T19:37:11.074Z,18.75
2022-11-16T19:39:10.478Z,23.02
2022-11-16T19:41:11.400Z,19.90
2022-11-16T19:43:09.695Z,31.58
2022-11-16T19:45:09.062Z,37.15
2022-11-16T19:47:07.564Z,27.48
2022-11-16T19:49:19.610Z,21.20
2022-11-16T19:51:20.158Z,32.42
2022-11-16T19:53:23.877Z,38.92
2022-11-16T19:55:28.638Z,43.88
2022-11-16T19:57:40.236Z,29.45
2022-11-16T19:59:38.620Z,50.33
2022-11-16T20:01:37.066Z,34.17
2022-11-16T20:03:38.533Z,32.33
2022-11-16T20:05:37.076Z,14.30
2022-11-16T20:07:38.804Z,27.42
2022-11-16T20:09:41.774Z,17.67
2022-11-16T20:11:41.731Z,28.17
2022-11-16T20:13:40.221Z,33.03
2022-11-16T20:15:38.449Z,24.92
2022-11-16T20:17:39.695Z,24.00
2022-11-16T20:19:42.103Z,45.65
2022-11-16T20:21:45.005Z,47.70
2022-11-16T20:23:45.254Z,19.98
2022-11-16T20:25:45.027Z,17.60
2022-11-16T20:27:43.171Z,23.23
2022-11-16T20:29:41.406Z,24.85
2022-11-16T20:31:45.498Z,22.40
2022-11-16T20:33:50.867Z,32.30
2022-11-16T20:35:49.596Z,18.60
2022-11-16T20:37:49.877Z,33.28
2022-11-16T20:39:54.490Z,27.30
2022-11-16T20:41:56.558Z,12.88
2022-11-16T20:44:00.227Z,19.52
2022-11-16T20:46:23.279Z,39.42
2022-11-16T20:48:29.625Z,21.88
2022-11-16T20:50:53.132Z,17.40
2022-11-16T20:53:01.997Z,24.50
2022-11-16T20:55:02.201Z,18.38
2022-11-16T20:57:02.435Z,17.15
2022-11-16T20:59:06.551Z,13.75
2022-11-16T21:01:13.028Z,24.42
2022-11-16T21:03:12.948Z,15.75
2022-11-16T21:05:11.076Z,39.88
2022-11-16T21:07:09.592Z,47.40
2022-11-16T21:09:12.860Z,26.60
2022-11-16T21:11:13.137Z,25.17
2022-11-16T21:13:32.880Z,37.47
2022-11-16T21:15:32.111Z,32.95
2022-11-16T21:17:39.210Z,21.33
2022-11-16T21:19:37.467Z,31.30
2022-11-16T21:21:36.135Z,17.80
2022-11-16T21:23:36.481Z,24.48
2022-11-16T21:25:35.155Z,27.85
2022-11-16T21:27:35.223Z,57.15
2022-11-16T21:29:34.742Z,25.13
2022-11-16T21:31:36.884Z,16.73
2022-11-16T21:33:35.633Z,16.17
2022-11-16T21:35:34.330Z,22.58
2022-11-16T21:37:32.727Z,19.95
2022-11-16T21:39:34.206Z,33.88
2022-11-16T21:41:32.745Z,32.13
2022-11-16T21:43:31.904Z,21.17
2022-11-16T21:45:31.642Z,16.77
2022-11-16T21:47:30.365Z,17.52
2022-11-16T21:49:28.610Z,14.68
2022-11-16T21:51:27.964Z,16.00
2022-11-16T21:53:26.219Z,16.60
2022-11-16T21:55:24.709Z,16.17
2022-11-16T21:57:23.327Z,17.08
2022-11-16T21:59:21.711Z,23.73
2022-11-16T22:01:22.622Z,17.05
2022-11-16T22:03:21.088Z,17.38
2022-11-16T22:05:42.639Z,13.13
2022-11-16T22:07:42.844Z,10.38
2022-11-16T22:09:41.354Z,17.80
2022-11-16T22:11:39.700Z,15.82
2022-11-16T22:13:38.649Z,14.40
2022-11-16T22:15:36.974Z,23.88
2022-11-16T22:17:37.955Z,11.07
2022-11-16T22:19:36.300Z,17.08
2022-11-16T22:21:36.373Z,11.57
2022-11-16T22:23:35.874Z,16.42
2022-11-16T22:25:34.564Z,15.75
2022-11-16T22:27:58.393Z,9.95
2022-11-16T22:29:54.465Z,17.45
2022-11-16T22:31:52.595Z,13.93
2022-11-16T22:33:54.734Z,13.25
2022-11-16T22:35:57.030Z,17.08
2022-11-16T22:37:56.058Z,18.00
2022-11-16T22:39:54.374Z,16.50
2022-11-16T22:41:52.622Z,13.52
2022-11-16T22:43:51.725Z,16.60
2022-11-16T22:45:50.127Z,18.08
2022-11-16T22:47:52.091Z,12.82
2022-11-16T22:49:54.949Z,15.75
2022-11-16T22:51:58.627Z,14.02
2022-11-16T22:53:58.679Z,15.88
2022-11-16T22:55:56.903Z,12.75
2022-11-16T22:57:55.016Z,15.07
2022-11-16T22:59:53.461Z,12.63
2022-11-16T23:01:51.720Z,12.18
2022-11-16T23:03:51.238Z,13.05
2022-11-16T23:05:50.875Z,8.63
2022-11-16T23:07:49.082Z,11.50
2022-11-16T23:09:47.111Z,13.30
2022-11-16T23:12:14.646Z,22.77
2022-11-16T23:14:34.798Z,15.93
2022-11-16T23:16:33.493Z,24.70
2022-11-16T23:18:31.611Z,25.88
2022-11-16T23:20:55.760Z,16.83
2022-11-16T23:23:15.052Z,9.98
2022-11-16T23:25:31.493Z,8.20
2022-11-16T23:27:36.348Z,11.55
2022-11-16T23:29:34.782Z,18.17
2022-11-16T23:31:33.100Z,10.00
2022-11-16T23:33:45.053Z,12.38
2022-11-16T23:35:43.368Z,12.38
2022-11-16T23:37:52.201Z,14.52
2022-11-16T23:39:51.995Z,9.95
2022-11-16T23:42:09.567Z,13.30
2022-11-16T23:44:07.808Z,16.45
2022-11-16T23:46:06.362Z,21.23
2022-11-16T23:48:05.365Z,14.55
2022-11-16T23:50:03.644Z,14.20
2022-11-16T23:52:02.177Z,13.05
2022-11-16T23:54:00.384Z,15.77
2022-11-16T23:56:06.100Z,14.52
2022-11-16T23:58:04.668Z,14.13
